Erdenemandal, Mongolia
Current Conditions -  °F | °C
As of 3:30 PM on Sunday 26 Oct 2014 (Local Time) from ZMUB Reporting Station
Clear Clear  
Wind Chill: 35°   Ceiling: Unl
Heat Index: 43°   Visibility: 6mi
Dew Point:   Wind: 16mph
Humidity: 16%   Direction: 150°SSE
Pressure: 30.3"   Gusts: NA
Location:  48.53°N, 101.37°E
Report Text: ZMUB 260730Z 15007MPS 120V180 CAVOK 06/M18 Q1026 NOSIG RMK QFE661.4 16
Loading
Personal Weather Stations






























Interactive Weather Map
Tropical Storm Tracking
New forecast layout! Learn more

10-Day Weather Forecast

Advertisements
Track Severe Weather on mobile